createdAt,value
2023-03-12T00:00:33.169Z,11.30
2023-03-12T00:01:33.167Z,15.40
2023-03-12T00:02:33.198Z,16.50
2023-03-12T00:03:33.168Z,13.70
2023-03-12T00:04:33.128Z,14.80
2023-03-12T00:05:33.116Z,13.20
2023-03-12T00:06:33.115Z,14.10
2023-03-12T00:07:33.111Z,13.60
2023-03-12T00:08:33.113Z,16.10
2023-03-12T00:09:33.075Z,17.20
2023-03-12T00:10:33.063Z,13.50
2023-03-12T00:11:33.058Z,10.80
2023-03-12T00:12:33.054Z,17.40
2023-03-12T00:13:33.036Z,16.20
2023-03-12T00:14:33.043Z,11.50
2023-03-12T00:15:33.012Z,14.00
2023-03-12T00:16:33.002Z,15.00
2023-03-12T00:17:32.988Z,10.30
2023-03-12T00:18:32.976Z,11.40
2023-03-12T00:19:32.975Z,16.00
2023-03-12T00:20:32.966Z,14.80
2023-03-12T00:21:32.957Z,11.00
2023-03-12T00:22:32.936Z,14.00
2023-03-12T00:23:32.930Z,16.90
2023-03-12T00:24:32.949Z,13.80
2023-03-12T00:25:32.908Z,12.80
2023-03-12T00:26:32.893Z,11.00
2023-03-12T00:27:32.883Z,12.80
2023-03-12T00:28:32.870Z,14.70
2023-03-12T00:29:32.862Z,14.40
2023-03-12T00:30:32.897Z,12.80
2023-03-12T00:31:33.092Z,12.30
2023-03-12T00:32:32.871Z,17.20
2023-03-12T00:33:32.820Z,11.30
2023-03-12T00:34:32.808Z,11.60
2023-03-12T00:35:32.873Z,15.40
2023-03-12T00:36:32.796Z,14.40
2023-03-12T00:37:32.773Z,15.40
2023-03-12T00:38:32.771Z,11.70
2023-03-12T00:39:32.754Z,14.60
2023-03-12T00:40:32.771Z,16.40
2023-03-12T00:41:32.732Z,15.00
2023-03-12T00:42:32.717Z,18.60
2023-03-12T00:43:32.708Z,16.30
2023-03-12T00:44:32.692Z,17.10
2023-03-12T00:45:32.687Z,18.90
2023-03-12T00:46:32.757Z,15.80
2023-03-12T00:47:32.667Z,15.60
2023-03-12T00:48:32.657Z,15.60
2023-03-12T00:49:32.637Z,13.50
2023-03-12T00:50:32.628Z,14.10
2023-03-12T00:51:32.619Z,14.80
2023-03-12T00:52:32.610Z,18.10
2023-03-12T00:53:32.598Z,17.90
2023-03-12T00:54:32.584Z,13.00
2023-03-12T00:55:32.579Z,16.10
2023-03-12T00:56:32.584Z,22.30
2023-03-12T00:57:32.551Z,14.80
2023-03-12T00:58:32.544Z,22.40
2023-03-12T00:59:32.537Z,15.10
2023-03-12T01:00:32.557Z,14.40
2023-03-12T01:01:32.510Z,14.60
2023-03-12T01:02:32.496Z,13.60
2023-03-12T01:03:32.489Z,14.60
2023-03-12T01:04:32.481Z,15.70
2023-03-12T01:05:35.061Z,17.70
2023-03-12T01:06:32.458Z,16.80
2023-03-12T01:07:32.449Z,18.10
2023-03-12T01:08:32.444Z,18.90
2023-03-12T01:09:32.427Z,16.20
2023-03-12T01:10:32.411Z,14.00
2023-03-12T01:11:32.410Z,14.50
2023-03-12T01:12:32.413Z,16.90
2023-03-12T01:13:32.386Z,13.70
2023-03-12T01:14:32.367Z,14.40
2023-03-12T01:15:32.363Z,18.10
2023-03-12T01:16:32.471Z,16.40
2023-03-12T01:17:32.337Z,17.10
2023-03-12T01:18:32.325Z,15.00
2023-03-12T01:19:32.329Z,13.70
2023-03-12T01:20:32.306Z,17.40
2023-03-12T01:21:32.300Z,16.40
2023-03-12T01:22:32.283Z,15.90
2023-03-12T01:23:32.276Z,12.80
2023-03-12T01:24:32.258Z,20.70
2023-03-12T01:25:32.253Z,17.20
2023-03-12T01:26:32.237Z,15.60
2023-03-12T01:27:32.229Z,15.40
2023-03-12T01:28:32.239Z,18.90
2023-03-12T01:29:32.204Z,18.30
2023-03-12T01:30:32.199Z,13.50
2023-03-12T01:31:32.240Z,18.10
2023-03-12T01:32:32.223Z,18.60
2023-03-12T01:33:32.162Z,15.60
2023-03-12T01:34:32.148Z,15.10
2023-03-12T01:35:32.270Z,14.90
2023-03-12T01:36:32.216Z,21.00
2023-03-12T01:37:32.117Z,19.20
2023-03-12T01:38:32.103Z,17.90
2023-03-12T01:39:32.096Z,13.60
2023-03-12T01:40:32.080Z,14.10
2023-03-12T01:41:32.081Z,17.50
2023-03-12T01:42:32.068Z,15.00
2023-03-12T01:43:32.048Z,14.70
2023-03-12T01:44:32.071Z,17.70
2023-03-12T01:45:32.070Z,15.20
2023-03-12T01:46:32.024Z,14.80
2023-03-12T01:47:32.016Z,13.30
2023-03-12T01:48:32.001Z,14.50
2023-03-12T01:49:31.984Z,17.00
2023-03-12T01:50:31.980Z,13.40
2023-03-12T01:51:31.967Z,18.60
2023-03-12T01:52:31.960Z,13.70
2023-03-12T01:53:31.949Z,15.00
2023-03-12T01:54:31.923Z,16.30
2023-03-12T01:55:31.925Z,19.00
2023-03-12T01:56:31.902Z,15.30
2023-03-12T01:57:31.895Z,15.60
2023-03-12T01:58:31.880Z,16.40
2023-03-12T01:59:31.869Z,16.50
2023-03-12T02:00:31.885Z,17.50
2023-03-12T02:01:31.893Z,18.00
2023-03-12T02:02:31.841Z,19.10
2023-03-12T02:03:31.828Z,15.70
2023-03-12T02:04:31.814Z,14.90
2023-03-12T02:05:31.804Z,16.20
2023-03-12T02:06:31.793Z,19.50
2023-03-12T02:07:31.782Z,15.30
2023-03-12T02:08:31.771Z,16.40
2023-03-12T02:09:31.764Z,14.90
2023-03-12T02:10:31.748Z,21.10
2023-03-12T02:11:31.738Z,17.90
2023-03-12T02:12:31.734Z,18.80
2023-03-12T02:13:31.719Z,21.90
2023-03-12T02:14:31.711Z,15.60
2023-03-12T02:15:31.696Z,18.30
2023-03-12T02:16:31.865Z,17.00
2023-03-12T02:17:31.676Z,19.60
2023-03-12T02:18:31.666Z,20.30
2023-03-12T02:19:31.656Z,20.00
2023-03-12T02:20:31.644Z,19.60
2023-03-12T02:21:31.635Z,21.60
2023-03-12T02:22:31.623Z,20.60
2023-03-12T02:23:31.634Z,22.00
2023-03-12T02:24:31.600Z,19.00
2023-03-12T02:25:31.600Z,15.60
2023-03-12T02:26:31.577Z,17.20
2023-03-12T02:27:31.576Z,16.70
2023-03-12T02:28:31.559Z,16.10
2023-03-12T02:29:31.545Z,16.20
2023-03-12T02:30:31.534Z,18.10
2023-03-12T02:31:31.589Z,20.70
2023-03-12T02:32:31.546Z,19.80
2023-03-12T02:33:31.506Z,19.90
2023-03-12T02:34:31.498Z,20.00
2023-03-12T02:35:31.550Z,19.00
2023-03-12T02:36:31.469Z,19.90
2023-03-12T02:37:31.466Z,22.70
2023-03-12T02:38:31.444Z,24.40
2023-03-12T02:39:31.461Z,19.50
2023-03-12T02:40:31.428Z,24.70
2023-03-12T02:41:31.417Z,19.90
2023-03-12T02:42:31.404Z,23.20
2023-03-12T02:43:31.442Z,24.10
2023-03-12T02:44:31.387Z,20.60
2023-03-12T02:45:31.390Z,21.10
2023-03-12T02:46:31.364Z,21.40
2023-03-12T02:47:31.352Z,23.30
2023-03-12T02:48:31.366Z,21.20
2023-03-12T02:49:31.330Z,20.20
2023-03-12T02:50:31.325Z,21.50
2023-03-12T02:51:31.310Z,24.60
2023-03-12T02:52:31.297Z,21.20
2023-03-12T02:53:31.291Z,21.80
2023-03-12T02:54:31.273Z,24.40
2023-03-12T02:55:31.266Z,21.50
2023-03-12T02:56:31.252Z,20.40
2023-03-12T02:57:31.243Z,17.90
2023-03-12T02:58:31.232Z,18.20
2023-03-12T02:59:31.220Z,16.60
2023-03-12T03:00:31.219Z,17.30
2023-03-12T03:01:31.245Z,14.80
2023-03-12T03:02:31.189Z,13.30
2023-03-12T03:03:31.179Z,13.50
2023-03-12T03:04:31.292Z,14.20
2023-03-12T03:05:31.176Z,14.80
2023-03-12T03:06:31.157Z,16.90
2023-03-12T03:07:31.135Z,15.70
2023-03-12T03:08:31.127Z,14.10
2023-03-12T03:09:31.161Z,14.20
2023-03-12T03:10:31.102Z,15.90
2023-03-12T03:11:31.095Z,16.90
2023-03-12T03:12:31.118Z,13.00
2023-03-12T03:13:31.071Z,16.30
2023-03-12T03:14:31.082Z,19.90
2023-03-12T03:15:31.103Z,14.70
2023-03-12T03:16:31.053Z,13.80
2023-03-12T03:17:31.030Z,15.10
2023-03-12T03:18:31.019Z,15.20
2023-03-12T03:19:31.015Z,18.10
2023-03-12T03:20:31.040Z,14.90
2023-03-12T03:21:30.989Z,15.90
2023-03-12T03:22:30.973Z,13.40
2023-03-12T03:23:30.963Z,13.70
2023-03-12T03:24:30.954Z,13.90
2023-03-12T03:25:30.945Z,14.00
2023-03-12T03:26:30.931Z,16.40
2023-03-12T03:27:30.920Z,13.40
2023-03-12T03:28:30.911Z,13.40
2023-03-12T03:29:30.900Z,16.60
2023-03-12T03:30:30.886Z,17.70
2023-03-12T03:31:30.958Z,17.50
2023-03-12T03:32:30.974Z,13.80
2023-03-12T03:33:30.855Z,17.00
2023-03-12T03:34:30.849Z,12.10
2023-03-12T03:35:30.842Z,14.80
2023-03-12T03:36:30.847Z,16.60
2023-03-12T03:37:30.811Z,14.00
2023-03-12T03:38:30.801Z,15.40
2023-03-12T03:39:30.810Z,13.70
2023-03-12T03:40:30.802Z,16.80
2023-03-12T03:41:30.768Z,18.20
2023-03-12T03:42:30.755Z,14.00
2023-03-12T03:43:30.743Z,14.00
2023-03-12T03:44:30.734Z,13.70
2023-03-12T03:45:30.727Z,17.00
2023-03-12T03:46:30.824Z,10.40
2023-03-12T03:47:30.702Z,11.10
2023-03-12T03:48:30.691Z,14.10
2023-03-12T03:49:30.680Z,20.90
2023-03-12T03:50:30.679Z,11.70
2023-03-12T03:51:30.656Z,17.00
2023-03-12T03:52:30.678Z,10.70
2023-03-12T03:53:30.635Z,14.00
2023-03-12T03:54:30.626Z,16.30
2023-03-12T03:55:30.613Z,10.40
2023-03-12T03:56:30.607Z,11.70
2023-03-12T03:57:30.605Z,14.10
2023-03-12T03:58:30.586Z,14.90
2023-03-12T03:59:30.569Z,13.20
2023-03-12T04:00:30.562Z,18.10
2023-03-12T04:01:30.549Z,12.80
2023-03-12T04:02:30.540Z,17.50
2023-03-12T04:03:30.581Z,16.90
2023-03-12T04:04:30.528Z,14.70
2023-03-12T04:05:30.544Z,16.00
2023-03-12T04:06:30.503Z,16.80
2023-03-12T04:07:30.488Z,14.90
2023-03-12T04:08:30.516Z,16.00
2023-03-12T04:09:30.477Z,16.80
2023-03-12T04:10:30.457Z,14.90
2023-03-12T04:11:30.440Z,14.90
2023-03-12T04:12:30.439Z,16.10
2023-03-12T04:13:30.418Z,16.00
2023-03-12T04:14:30.411Z,19.90
2023-03-12T04:15:30.402Z,17.50
2023-03-12T04:16:30.386Z,17.10
2023-03-12T04:17:30.374Z,21.30
2023-03-12T04:18:30.370Z,16.10
2023-03-12T04:19:30.352Z,23.60
2023-03-12T04:20:30.343Z,18.30
2023-03-12T04:21:30.331Z,17.70
2023-03-12T04:22:30.322Z,20.60
2023-03-12T04:23:30.311Z,15.10
2023-03-12T04:24:30.326Z,13.50
2023-03-12T04:25:30.285Z,19.30
2023-03-12T04:26:30.278Z,18.70
2023-03-12T04:27:30.267Z,15.30
2023-03-12T04:28:30.259Z,17.20
2023-03-12T04:29:30.243Z,15.50
2023-03-12T04:30:30.244Z,17.30
2023-03-12T04:31:30.328Z,16.70
2023-03-12T04:32:30.238Z,18.30
2023-03-12T04:33:30.206Z,15.20
2023-03-12T04:34:30.200Z,15.70
2023-03-12T04:35:30.287Z,14.70
2023-03-12T04:36:30.168Z,16.80
2023-03-12T04:37:30.156Z,14.90
2023-03-12T04:38:30.161Z,21.10
2023-03-12T04:39:30.136Z,18.10
2023-03-12T04:40:30.159Z,17.00
2023-03-12T04:41:30.172Z,17.70
2023-03-12T04:42:30.105Z,15.30
2023-03-12T04:43:30.094Z,18.40
2023-03-12T04:44:30.085Z,13.80
2023-03-12T04:45:30.073Z,14.70
2023-03-12T04:46:30.136Z,16.00
2023-03-12T04:47:30.052Z,15.80
2023-03-12T04:48:30.052Z,16.50
2023-03-12T04:49:30.033Z,15.80
2023-03-12T04:50:30.026Z,13.30
2023-03-12T04:51:30.009Z,17.10
2023-03-12T04:52:30.000Z,15.90
2023-03-12T04:53:30.009Z,18.60
2023-03-12T04:54:29.977Z,19.20
2023-03-12T04:55:29.970Z,18.20
2023-03-12T04:56:29.991Z,18.80
2023-03-12T04:57:29.953Z,18.30
2023-03-12T04:58:29.942Z,18.60
2023-03-12T04:59:29.931Z,18.30
2023-03-12T05:00:29.920Z,19.50
2023-03-12T05:01:29.909Z,20.60
2023-03-12T05:02:29.967Z,16.40
2023-03-12T05:03:29.938Z,19.90
2023-03-12T05:04:31.912Z,19.20
2023-03-12T05:05:29.864Z,19.80
2023-03-12T05:06:29.859Z,19.10
2023-03-12T05:07:29.846Z,19.20
2023-03-12T05:08:29.838Z,19.30
2023-03-12T05:09:29.823Z,20.30
2023-03-12T05:10:29.812Z,20.50
2023-03-12T05:11:29.811Z,20.70
2023-03-12T05:12:29.813Z,23.80
2023-03-12T05:13:29.779Z,22.80
2023-03-12T05:14:29.770Z,24.90
2023-03-12T05:15:29.772Z,24.00
2023-03-12T05:16:29.860Z,18.60
2023-03-12T05:17:29.735Z,20.60
2023-03-12T05:18:29.725Z,22.30
2023-03-12T05:19:29.713Z,22.20
2023-03-12T05:20:29.703Z,21.50
2023-03-12T05:21:29.691Z,21.80
2023-03-12T05:22:29.680Z,24.40
2023-03-12T05:23:29.668Z,22.80
2023-03-12T05:24:29.660Z,19.60
2023-03-12T05:25:29.650Z,21.70
2023-03-12T05:26:29.638Z,23.10
2023-03-12T05:27:31.817Z,21.30
2023-03-12T05:28:29.641Z,20.10
2023-03-12T05:29:29.614Z,19.30
2023-03-12T05:30:29.595Z,18.80
2023-03-12T05:31:29.641Z,19.20
2023-03-12T05:32:29.600Z,19.60
2023-03-12T05:33:29.561Z,20.90
2023-03-12T05:34:29.556Z,19.60
2023-03-12T05:35:29.541Z,22.50
2023-03-12T05:36:29.537Z,18.10
2023-03-12T05:37:29.519Z,19.50
2023-03-12T05:38:29.509Z,19.20
2023-03-12T05:39:29.504Z,22.30
2023-03-12T05:40:29.506Z,18.80
2023-03-12T05:41:29.485Z,18.80
2023-03-12T05:42:29.467Z,20.80
2023-03-12T05:43:29.456Z,22.50
2023-03-12T05:44:29.469Z,19.90
2023-03-12T05:45:29.504Z,19.70
2023-03-12T05:46:29.439Z,24.30
2023-03-12T05:47:29.407Z,24.00
2023-03-12T05:48:29.402Z,18.50
2023-03-12T05:49:29.387Z,24.70
2023-03-12T05:50:29.378Z,19.50
2023-03-12T05:51:29.364Z,18.70
2023-03-12T05:52:29.357Z,18.70
2023-03-12T05:53:29.354Z,21.60
2023-03-12T05:54:29.328Z,20.50
2023-03-12T05:55:29.318Z,25.70
2023-03-12T05:56:29.310Z,25.10
2023-03-12T05:57:29.305Z,25.50
2023-03-12T05:58:29.287Z,22.90
2023-03-12T05:59:29.274Z,23.80
2023-03-12T06:00:29.295Z,23.10
2023-03-12T06:01:29.262Z,18.70
2023-03-12T06:02:29.353Z,21.30
2023-03-12T06:03:29.329Z,24.00
2023-03-12T06:04:29.220Z,24.20
2023-03-12T06:05:29.210Z,20.00
2023-03-12T06:06:29.197Z,21.80
2023-03-12T06:07:29.185Z,21.20
2023-03-12T06:08:29.176Z,21.90
2023-03-12T06:09:29.163Z,23.00
2023-03-12T06:10:29.155Z,24.00
2023-03-12T06:11:29.142Z,22.70
2023-03-12T06:12:29.131Z,23.50
2023-03-12T06:13:29.124Z,24.60
2023-03-12T06:14:29.120Z,21.90
2023-03-12T06:15:29.099Z,17.70
2023-03-12T06:16:29.175Z,22.60
2023-03-12T06:17:29.081Z,18.70
2023-03-12T06:18:29.083Z,20.50
2023-03-12T06:19:29.057Z,23.60
2023-03-12T06:20:29.060Z,23.70
2023-03-12T06:21:29.161Z,19.90
2023-03-12T06:22:29.106Z,23.10
2023-03-12T06:23:29.194Z,23.10
2023-03-12T06:24:29.090Z,19.30
2023-03-12T06:25:29.090Z,23.50
2023-03-12T06:26:29.131Z,19.70
2023-03-12T06:27:29.079Z,20.40
2023-03-12T06:28:28.997Z,22.10
2023-03-12T06:29:28.953Z,22.50
2023-03-12T06:30:28.944Z,24.50
2023-03-12T06:31:28.979Z,23.70
2023-03-12T06:32:29.006Z,20.60
2023-03-12T06:33:28.916Z,22.70
2023-03-12T06:34:28.899Z,19.20
2023-03-12T06:35:28.910Z,20.40
2023-03-12T06:36:29.032Z,21.00
2023-03-12T06:37:28.866Z,19.60
2023-03-12T06:38:28.856Z,22.70
2023-03-12T06:39:28.846Z,24.50
2023-03-12T06:40:28.837Z,20.80
2023-03-12T06:41:28.927Z,19.80
2023-03-12T06:42:28.819Z,23.30
2023-03-12T06:43:28.799Z,21.70
2023-03-12T06:44:28.792Z,24.50
2023-03-12T06:45:28.776Z,20.30
2023-03-12T06:46:28.881Z,21.50
2023-03-12T06:47:28.752Z,20.50
2023-03-12T06:48:28.766Z,24.10
2023-03-12T06:49:28.730Z,19.30
2023-03-12T06:50:28.769Z,18.40
2023-03-12T06:51:28.712Z,23.60
2023-03-12T06:52:28.701Z,20.70
2023-03-12T06:53:28.690Z,23.50
2023-03-12T06:54:28.679Z,18.60
2023-03-12T06:55:28.666Z,15.90
2023-03-12T06:56:28.656Z,20.30
2023-03-12T06:57:28.644Z,18.90
2023-03-12T06:58:28.638Z,21.40
2023-03-12T06:59:28.634Z,19.20
2023-03-12T07:00:28.613Z,20.10
2023-03-12T07:01:28.610Z,26.10
2023-03-12T07:02:28.650Z,20.00
2023-03-12T07:03:28.584Z,17.40
2023-03-12T07:04:28.596Z,17.00
2023-03-12T07:05:30.084Z,19.30
2023-03-12T07:06:28.550Z,19.90
2023-03-12T07:07:28.539Z,23.20
2023-03-12T07:08:28.533Z,18.10
2023-03-12T07:09:28.519Z,17.40
2023-03-12T07:10:28.514Z,17.20
2023-03-12T07:11:28.502Z,17.20
2023-03-12T07:12:28.498Z,17.70
2023-03-12T07:13:28.486Z,22.00
2023-03-12T07:14:28.479Z,17.90
2023-03-12T07:15:28.469Z,20.00
2023-03-12T07:16:28.499Z,22.50
2023-03-12T07:17:28.442Z,23.50
2023-03-12T07:18:28.427Z,22.80
2023-03-12T07:19:28.414Z,15.70
2023-03-12T07:20:28.428Z,15.70
2023-03-12T07:21:28.397Z,16.70
2023-03-12T07:22:28.402Z,19.60
2023-03-12T07:23:28.377Z,16.90
2023-03-12T07:24:28.363Z,18.70
2023-03-12T07:25:28.348Z,19.30
2023-03-12T07:26:28.339Z,22.00
2023-03-12T07:27:28.331Z,17.90
2023-03-12T07:28:28.317Z,18.00
2023-03-12T07:29:28.305Z,15.50
2023-03-12T07:30:28.296Z,17.80
2023-03-12T07:31:28.461Z,17.30
2023-03-12T07:32:28.326Z,18.60
2023-03-12T07:33:28.450Z,20.20
2023-03-12T07:34:28.565Z,13.90
2023-03-12T07:35:28.361Z,14.60
2023-03-12T07:36:28.398Z,17.30
2023-03-12T07:37:28.220Z,17.50
2023-03-12T07:38:28.258Z,14.60
2023-03-12T07:39:28.243Z,15.30
2023-03-12T07:40:28.192Z,11.50
2023-03-12T07:41:28.228Z,16.60
2023-03-12T07:42:28.235Z,17.00
2023-03-12T07:43:28.202Z,14.70
2023-03-12T07:44:28.143Z,16.30
2023-03-12T07:45:28.256Z,13.00
2023-03-12T07:46:28.156Z,13.80
2023-03-12T07:47:28.243Z,14.50
2023-03-12T07:48:28.098Z,14.40
2023-03-12T07:49:28.086Z,15.00
2023-03-12T07:50:28.169Z,13.20
2023-03-12T07:51:28.069Z,14.50
2023-03-12T07:52:28.139Z,13.20
2023-03-12T07:53:28.047Z,13.90
2023-03-12T07:54:28.088Z,14.20
2023-03-12T07:55:28.095Z,13.00
2023-03-12T07:56:28.091Z,13.80
2023-03-12T07:57:28.106Z,12.20
2023-03-12T07:58:28.143Z,12.50
2023-03-12T07:59:28.099Z,13.90
2023-03-12T08:00:28.022Z,14.90
2023-03-12T08:01:27.981Z,13.60
2023-03-12T08:02:28.125Z,13.60
2023-03-12T08:03:28.150Z,16.50
2023-03-12T08:04:28.080Z,13.00
2023-03-12T08:05:27.942Z,13.70
2023-03-12T08:06:27.906Z,15.30
2023-03-12T08:07:27.967Z,13.10
2023-03-12T08:08:27.940Z,14.60
2023-03-12T08:09:27.878Z,16.10
2023-03-12T08:10:27.934Z,13.70
2023-03-12T08:11:27.853Z,16.20
2023-03-12T08:12:27.996Z,13.60
2023-03-12T08:13:27.889Z,12.80
2023-03-12T08:14:27.843Z,17.40
2023-03-12T08:15:27.809Z,11.40
2023-03-12T08:16:27.810Z,13.20
2023-03-12T08:17:27.793Z,11.70
2023-03-12T08:18:27.773Z,13.60
2023-03-12T08:19:27.779Z,13.00
2023-03-12T08:20:27.752Z,15.70
2023-03-12T08:21:27.741Z,14.30
2023-03-12T08:22:27.732Z,12.30
2023-03-12T08:23:27.720Z,12.40
2023-03-12T08:24:27.729Z,14.00
2023-03-12T08:25:27.696Z,13.50
2023-03-12T08:26:27.697Z,15.10
2023-03-12T08:27:27.676Z,15.20
2023-03-12T08:28:27.663Z,15.90
2023-03-12T08:29:27.657Z,13.30
2023-03-12T08:30:30.103Z,11.30
2023-03-12T08:31:27.688Z,16.10
2023-03-12T08:32:27.826Z,15.80
2023-03-12T08:33:27.610Z,14.70
2023-03-12T08:34:27.602Z,12.90
2023-03-12T08:35:27.639Z,12.30
2023-03-12T08:36:27.625Z,15.50
2023-03-12T08:37:27.567Z,14.90
2023-03-12T08:38:27.555Z,11.80
2023-03-12T08:39:27.548Z,12.80
2023-03-12T08:40:27.562Z,12.00
2023-03-12T08:41:27.526Z,13.00
2023-03-12T08:42:27.513Z,11.30
2023-03-12T08:43:29.319Z,12.80
2023-03-12T08:44:27.502Z,13.20
2023-03-12T08:45:27.477Z,12.70
2023-03-12T08:46:27.537Z,12.00
2023-03-12T08:47:27.459Z,12.20
2023-03-12T08:48:27.445Z,12.30
2023-03-12T08:49:27.462Z,11.20
2023-03-12T08:50:27.591Z,12.90
2023-03-12T08:51:27.418Z,12.00
2023-03-12T08:52:27.403Z,11.50
2023-03-12T08:53:27.411Z,12.80
2023-03-12T08:54:27.389Z,16.20
2023-03-12T08:55:27.379Z,15.70
2023-03-12T08:56:27.394Z,14.40
2023-03-12T08:57:27.355Z,13.00
2023-03-12T08:58:27.338Z,13.10
2023-03-12T08:59:27.328Z,12.00
2023-03-12T09:00:27.388Z,10.90
2023-03-12T09:01:27.314Z,11.60
2023-03-12T09:02:27.298Z,13.30
2023-03-12T09:03:27.405Z,12.60
2023-03-12T09:04:27.393Z,14.50
2023-03-12T09:05:27.269Z,10.20
2023-03-12T09:06:27.249Z,11.00
2023-03-12T09:07:27.242Z,12.40
2023-03-12T09:08:27.226Z,12.60
2023-03-12T09:09:27.219Z,12.70
2023-03-12T09:10:30.210Z,12.70
2023-03-12T09:11:27.239Z,12.20
2023-03-12T09:12:27.210Z,8.40
2023-03-12T09:13:40.518Z,10.60
2023-03-12T09:15:01.677Z,12.40
2023-03-12T09:15:28.188Z,13.00
2023-03-12T09:16:27.163Z,11.40
2023-03-12T09:17:27.130Z,10.20
2023-03-12T09:18:27.115Z,13.00
2023-03-12T09:19:27.113Z,13.30
2023-03-12T09:20:27.094Z,11.20
2023-03-12T09:21:27.080Z,11.60
2023-03-12T09:22:27.068Z,8.70
2023-03-12T09:23:27.061Z,11.00
2023-03-12T09:24:27.051Z,11.00
2023-03-12T09:25:27.036Z,11.10
2023-03-12T09:26:27.024Z,12.10
2023-03-12T09:27:27.015Z,13.30
2023-03-12T09:28:27.025Z,9.30
2023-03-12T09:29:26.992Z,10.30
2023-03-12T09:30:27.253Z,11.50
2023-03-12T09:31:26.975Z,11.10
2023-03-12T09:32:27.039Z,9.10
2023-03-12T09:33:26.947Z,11.00
2023-03-12T09:34:26.946Z,11.10
2023-03-12T09:35:26.926Z,12.80
2023-03-12T09:36:26.917Z,19.70
2023-03-12T09:37:26.927Z,14.40
2023-03-12T09:38:26.897Z,10.50
2023-03-12T09:39:26.879Z,11.40
2023-03-12T09:40:26.869Z,13.90
2023-03-12T09:41:26.857Z,10.90
2023-03-12T09:42:26.844Z,13.00
2023-03-12T09:43:26.837Z,11.20
2023-03-12T09:44:26.845Z,10.90
2023-03-12T09:45:26.810Z,10.60
2023-03-12T09:46:26.860Z,11.70
2023-03-12T09:47:26.797Z,10.00
2023-03-12T09:48:26.789Z,9.10
2023-03-12T09:49:26.769Z,11.10
2023-03-12T09:50:26.755Z,10.00
2023-03-12T09:51:26.768Z,11.70
2023-03-12T09:52:26.765Z,9.30
2023-03-12T09:53:26.724Z,9.40
2023-03-12T09:54:26.710Z,10.60
2023-03-12T09:55:26.704Z,9.40
2023-03-12T09:56:26.688Z,10.90
2023-03-12T09:57:26.680Z,12.90
2023-03-12T09:58:26.678Z,11.90
2023-03-12T09:59:26.664Z,11.50
2023-03-12T10:00:26.695Z,11.20
2023-03-12T10:01:26.660Z,12.40
2023-03-12T10:02:26.625Z,13.30
2023-03-12T10:03:26.731Z,10.40
2023-03-12T10:04:26.697Z,10.40
2023-03-12T10:05:26.680Z,9.60
2023-03-12T10:06:26.626Z,10.30
2023-03-12T10:07:26.577Z,9.70
2023-03-12T10:08:31.534Z,10.70
2023-03-12T10:09:26.553Z,10.70
2023-03-12T10:10:26.541Z,8.50
2023-03-12T10:11:26.530Z,9.10
2023-03-12T10:12:26.533Z,10.80
2023-03-12T10:13:26.528Z,9.80
2023-03-12T10:14:26.518Z,10.90
2023-03-12T10:15:26.490Z,10.80
2023-03-12T10:16:26.506Z,10.00
2023-03-12T10:17:26.464Z,12.70
2023-03-12T10:18:26.619Z,10.30
2023-03-12T10:19:26.448Z,9.50
2023-03-12T10:20:26.461Z,9.60
2023-03-12T10:21:26.429Z,10.10
2023-03-12T10:22:26.416Z,9.50
2023-03-12T10:23:26.401Z,9.60
2023-03-12T10:24:26.390Z,9.40
2023-03-12T10:25:26.376Z,10.80
2023-03-12T10:26:26.419Z,9.90
2023-03-12T10:27:26.371Z,10.00
2023-03-12T10:28:26.345Z,8.80
2023-03-12T10:29:26.329Z,11.20
2023-03-12T10:30:26.335Z,12.10
2023-03-12T10:31:26.483Z,9.00
2023-03-12T10:32:26.430Z,11.40
2023-03-12T10:33:26.291Z,10.00
2023-03-12T10:34:26.272Z,12.00
2023-03-12T10:35:26.270Z,9.90
2023-03-12T10:36:26.258Z,9.90
2023-03-12T10:37:26.240Z,9.70
2023-03-12T10:38:26.233Z,8.40
2023-03-12T10:39:26.221Z,7.80
2023-03-12T10:40:26.216Z,9.60
2023-03-12T10:41:26.206Z,10.10
2023-03-12T10:42:26.207Z,7.60
2023-03-12T10:43:26.176Z,8.40
2023-03-12T10:44:26.163Z,8.30
2023-03-12T10:45:26.152Z,8.60
2023-03-12T10:46:26.149Z,11.70
2023-03-12T10:47:26.130Z,9.80
2023-03-12T10:48:26.161Z,11.00
2023-03-12T10:49:26.111Z,9.60
2023-03-12T10:50:26.097Z,7.20
2023-03-12T10:51:26.090Z,10.70
2023-03-12T10:52:26.073Z,9.20
2023-03-12T10:53:29.305Z,9.80
2023-03-12T10:54:26.056Z,12.20
2023-03-12T10:55:26.042Z,9.00
2023-03-12T10:56:26.030Z,10.00
2023-03-12T10:57:26.023Z,10.70
2023-03-12T10:58:26.021Z,7.80
2023-03-12T10:59:25.997Z,9.70
2023-03-12T11:00:25.984Z,10.20
2023-03-12T11:01:26.028Z,9.20
2023-03-12T11:02:25.963Z,10.70
2023-03-12T11:03:25.963Z,8.40
2023-03-12T11:04:28.719Z,6.40
2023-03-12T11:05:25.934Z,9.70
2023-03-12T11:06:25.918Z,8.40
2023-03-12T11:07:25.911Z,9.20
2023-03-12T11:08:25.898Z,8.00
2023-03-12T11:09:25.888Z,9.50
2023-03-12T11:10:25.877Z,8.60
2023-03-12T11:11:25.864Z,10.20
2023-03-12T11:12:25.870Z,8.70
2023-03-12T11:13:25.851Z,6.50
2023-03-12T11:14:25.836Z,8.20
2023-03-12T11:15:25.821Z,7.90
2023-03-12T11:16:26.882Z,8.30
2023-03-12T11:17:25.799Z,8.80
2023-03-12T11:18:25.788Z,8.00
2023-03-12T11:19:25.779Z,8.60
2023-03-12T11:20:25.787Z,9.50
2023-03-12T11:21:25.756Z,8.90
2023-03-12T11:22:25.742Z,6.90
2023-03-12T11:23:25.739Z,9.60
2023-03-12T11:24:25.751Z,15.00
2023-03-12T11:25:25.710Z,9.00
2023-03-12T11:26:25.714Z,11.90
2023-03-12T11:27:25.696Z,11.80
2023-03-12T11:28:25.753Z,14.10
2023-03-12T11:29:25.720Z,11.00
2023-03-12T11:30:25.685Z,9.80
2023-03-12T11:31:25.711Z,11.40
2023-03-12T11:32:25.695Z,8.70
2023-03-12T11:33:25.629Z,9.20
2023-03-12T11:34:25.618Z,8.90
2023-03-12T11:35:25.641Z,8.80
2023-03-12T11:36:25.621Z,11.70
2023-03-12T11:37:25.583Z,13.30
2023-03-12T11:38:25.569Z,9.70
2023-03-12T11:39:25.556Z,9.10
2023-03-12T11:40:25.548Z,9.30
2023-03-12T11:41:25.736Z,8.80
2023-03-12T11:42:25.527Z,9.20
2023-03-12T11:43:41.638Z,10.50
2023-03-12T11:44:26.529Z,10.60
2023-03-12T11:45:25.493Z,9.90
2023-03-12T11:46:25.508Z,10.10
2023-03-12T11:47:25.513Z,8.90
2023-03-12T11:48:25.529Z,12.50
2023-03-12T11:49:25.462Z,10.80
2023-03-12T11:50:25.436Z,11.30
2023-03-12T11:51:25.438Z,9.70
2023-03-12T11:52:25.441Z,10.00
2023-03-12T11:53:25.408Z,12.70
2023-03-12T11:54:25.394Z,8.10
2023-03-12T11:55:25.381Z,12.90
2023-03-12T11:56:25.369Z,9.80
2023-03-12T11:57:25.367Z,10.10
2023-03-12T11:58:25.346Z,10.20
2023-03-12T11:59:25.339Z,13.60
2023-03-12T12:00:25.329Z,10.80
2023-03-12T12:01:25.315Z,11.20
2023-03-12T12:02:25.337Z,12.00
2023-03-12T12:03:25.372Z,10.70
2023-03-12T12:04:25.284Z,10.10
2023-03-12T12:05:25.279Z,9.50
2023-03-12T12:06:25.261Z,11.60
2023-03-12T12:07:25.248Z,11.40
2023-03-12T12:08:25.301Z,11.30
2023-03-12T12:09:25.231Z,12.40
2023-03-12T12:10:25.233Z,10.00
2023-03-12T12:11:25.222Z,11.50
2023-03-12T12:12:25.197Z,8.90
2023-03-12T12:13:25.185Z,10.60
2023-03-12T12:14:25.176Z,9.50
2023-03-12T12:15:25.164Z,10.10
2023-03-12T12:16:25.175Z,9.40
2023-03-12T12:17:25.140Z,9.40
2023-03-12T12:18:25.128Z,11.70
2023-03-12T12:19:25.122Z,11.40
2023-03-12T12:20:25.111Z,9.10
2023-03-12T12:21:25.097Z,11.60
2023-03-12T12:22:25.086Z,10.20
2023-03-12T12:23:25.075Z,11.40
2023-03-12T12:24:25.095Z,11.00
2023-03-12T12:25:25.053Z,9.40
2023-03-12T12:26:25.047Z,15.40
2023-03-12T12:27:25.034Z,10.80
2023-03-12T12:28:25.033Z,15.30
2023-03-12T12:29:25.010Z,11.40
2023-03-12T12:30:25.004Z,9.70
2023-03-12T12:31:24.997Z,14.20
2023-03-12T12:32:25.024Z,9.60
2023-03-12T12:33:24.966Z,10.40
2023-03-12T12:34:24.957Z,11.80
2023-03-12T12:35:24.948Z,14.90
2023-03-12T12:36:24.938Z,14.00
2023-03-12T12:37:24.931Z,11.50
2023-03-12T12:38:24.926Z,11.10
2023-03-12T12:39:24.901Z,11.70
2023-03-12T12:40:24.913Z,13.10
2023-03-12T12:41:24.878Z,16.30
2023-03-12T12:42:24.874Z,11.70
2023-03-12T12:43:24.858Z,12.80
2023-03-12T12:44:24.850Z,13.00
2023-03-12T12:45:24.841Z,14.40
2023-03-12T12:46:24.971Z,16.90
2023-03-12T12:47:24.819Z,18.50
2023-03-12T12:48:24.803Z,15.40
2023-03-12T12:49:24.787Z,20.60
2023-03-12T12:50:24.789Z,18.90
2023-03-12T12:51:24.768Z,13.40
2023-03-12T12:52:24.762Z,13.30
2023-03-12T12:53:24.749Z,13.20
2023-03-12T12:54:24.736Z,13.40
2023-03-12T12:55:24.730Z,14.00